AFL1365 UHMM-UHPP
Flight info
| Callsign | AFL1365 |
|---|---|
| Flight time | N/A |
| Altitude | 37000 |
| Route | UHMM OSKET A812 BAKEN UHPP |
| Aircraft | B738/M-SDE2E3FGHIRWXY/LB1 |
Departure
| Time | N/A |
|---|---|
| Airport | Sokol Airport (UHMM) |
Arrival
| Time | 2026-05-09 07:57 |
|---|---|
| Airport | Yelizovo Airport (UHPP) |
| Time | Latitude | Longitude | Altitude | Speed | Heading |
|---|---|---|---|---|---|
| 2026-05-09 07:27 | 55.38847 | 156.24893 | 36868 ft | 458 kts | 153° |
| 2026-05-09 07:27 | 55.33371 | 156.30679 | 36866 ft | 459 kts | 153° |
| 2026-05-09 07:28 | 55.27890 | 156.36441 | 36859 ft | 459 kts | 154° |
| 2026-05-09 07:28 | 55.25183 | 156.39282 | 36725 ft | 462 kts | 154° |
| 2026-05-09 07:28 | 55.22406 | 156.42191 | 36284 ft | 464 kts | 154° |
| 2026-05-09 07:29 | 55.19654 | 156.45078 | 35888 ft | 459 kts | 154° |
| 2026-05-09 07:29 | 55.16917 | 156.47945 | 35461 ft | 455 kts | 154° |
| 2026-05-09 07:29 | 55.14209 | 156.50771 | 35046 ft | 452 kts | 154° |
| 2026-05-09 07:29 | 55.11507 | 156.53586 | 34615 ft | 449 kts | 155° |
| 2026-05-09 07:30 | 55.08831 | 156.56368 | 34165 ft | 446 kts | 155° |
| 2026-05-09 07:30 | 55.06176 | 156.59125 | 33761 ft | 443 kts | 155° |
| 2026-05-09 07:30 | 55.03531 | 156.61868 | 33293 ft | 440 kts | 155° |
| 2026-05-09 07:30 | 55.00914 | 156.64579 | 32872 ft | 436 kts | 156° |
| 2026-05-09 07:31 | 54.98311 | 156.67271 | 32464 ft | 432 kts | 156° |
| 2026-05-09 07:31 | 54.95735 | 156.69936 | 32067 ft | 428 kts | 156° |
| 2026-05-09 07:31 | 54.93184 | 156.72581 | 31685 ft | 425 kts | 156° |
| 2026-05-09 07:31 | 54.90661 | 156.75196 | 31297 ft | 421 kts | 156° |
| 2026-05-09 07:32 | 54.88147 | 156.77795 | 30917 ft | 417 kts | 156° |
| 2026-05-09 07:32 | 54.85665 | 156.80357 | 30521 ft | 414 kts | 158° |
| 2026-05-09 07:32 | 54.83197 | 156.82889 | 30218 ft | 409 kts | 158° |
| 2026-05-09 07:32 | 54.80760 | 156.85379 | 29809 ft | 406 kts | 158° |
| 2026-05-09 07:33 | 54.78328 | 156.87855 | 29368 ft | 403 kts | 158° |
| 2026-05-09 07:33 | 54.73574 | 156.92694 | 28610 ft | 394 kts | 158° |
| 2026-05-09 07:33 | 54.71218 | 156.95088 | 28236 ft | 390 kts | 158° |
| 2026-05-09 07:34 | 54.68897 | 156.97443 | 27875 ft | 385 kts | 157° |
| 2026-05-09 07:34 | 54.66594 | 156.99778 | 27509 ft | 382 kts | 157° |
| 2026-05-09 07:34 | 54.64315 | 157.02085 | 27150 ft | 378 kts | 157° |
| 2026-05-09 07:34 | 54.62057 | 157.04371 | 26784 ft | 374 kts | 158° |
| 2026-05-09 07:35 | 54.59822 | 157.06636 | 26423 ft | 371 kts | 158° |
| 2026-05-09 07:35 | 54.57601 | 157.08884 | 26079 ft | 368 kts | 158° |
| 2026-05-09 07:35 | 54.55396 | 157.11113 | 25726 ft | 365 kts | 157° |
| 2026-05-09 07:35 | 54.53207 | 157.13322 | 25383 ft | 363 kts | 156° |
| 2026-05-09 07:36 | 54.51036 | 157.15510 | 25054 ft | 360 kts | 156° |
| 2026-05-09 07:36 | 54.48900 | 157.17661 | 24711 ft | 358 kts | 156° |
| 2026-05-09 07:36 | 54.46731 | 157.19841 | 24372 ft | 355 kts | 155° |
| 2026-05-09 07:36 | 54.44599 | 157.21983 | 24048 ft | 353 kts | 155° |
| 2026-05-09 07:37 | 54.42507 | 157.24081 | 23716 ft | 352 kts | 154° |
| 2026-05-09 07:37 | 54.40393 | 157.26199 | 23378 ft | 350 kts | 154° |
| 2026-05-09 07:37 | 54.38293 | 157.28300 | 22986 ft | 348 kts | 153° |
| 2026-05-09 07:37 | 54.36208 | 157.30386 | 22629 ft | 345 kts | 153° |
| 2026-05-09 07:38 | 54.34143 | 157.32449 | 22298 ft | 342 kts | 153° |
| 2026-05-09 07:38 | 54.32095 | 157.34494 | 21958 ft | 340 kts | 153° |
| 2026-05-09 07:38 | 54.30063 | 157.36518 | 21636 ft | 336 kts | 153° |
| 2026-05-09 07:38 | 54.28042 | 157.38530 | 21293 ft | 335 kts | 153° |
| 2026-05-09 07:39 | 54.26036 | 157.40524 | 20980 ft | 331 kts | 153° |
| 2026-05-09 07:39 | 54.24049 | 157.42496 | 20649 ft | 329 kts | 153° |
| 2026-05-09 07:39 | 54.22073 | 157.44457 | 20329 ft | 327 kts | 153° |
| 2026-05-09 07:39 | 54.20108 | 157.46403 | 20009 ft | 326 kts | 153° |
| 2026-05-09 07:40 | 54.18150 | 157.48341 | 19672 ft | 324 kts | 153° |
| 2026-05-09 07:40 | 54.16198 | 157.50273 | 19365 ft | 322 kts | 153° |
| 2026-05-09 07:40 | 54.15543 | 157.50920 | 19265 ft | 322 kts | 153° |
| 2026-05-09 07:40 | 54.12333 | 157.54087 | 18737 ft | 320 kts | 153° |
| 2026-05-09 07:41 | 54.10408 | 157.55984 | 18424 ft | 319 kts | 153° |
| 2026-05-09 07:41 | 54.08495 | 157.57873 | 18116 ft | 317 kts | 153° |
| 2026-05-09 07:41 | 54.06588 | 157.59757 | 17758 ft | 316 kts | 153° |
| 2026-05-09 07:41 | 54.04686 | 157.61634 | 17414 ft | 314 kts | 153° |
| 2026-05-09 07:42 | 54.02801 | 157.63495 | 17090 ft | 312 kts | 153° |
| 2026-05-09 07:42 | 54.00930 | 157.65339 | 16786 ft | 309 kts | 153° |
| 2026-05-09 07:42 | 53.99077 | 157.67164 | 16462 ft | 307 kts | 153° |
| 2026-05-09 07:42 | 53.97232 | 157.68978 | 16161 ft | 305 kts | 153° |
| 2026-05-09 07:43 | 53.95400 | 157.70777 | 15844 ft | 303 kts | 153° |
| 2026-05-09 07:43 | 53.93580 | 157.72564 | 15539 ft | 301 kts | 153° |
| 2026-05-09 07:43 | 53.91791 | 157.74318 | 15250 ft | 300 kts | 153° |
| 2026-05-09 07:43 | 53.89989 | 157.76083 | 14945 ft | 298 kts | 152° |
| 2026-05-09 07:44 | 53.88200 | 157.77833 | 14646 ft | 297 kts | 152° |
| 2026-05-09 07:44 | 53.86415 | 157.79578 | 14346 ft | 295 kts | 152° |
| 2026-05-09 07:44 | 53.84633 | 157.81319 | 14038 ft | 294 kts | 152° |
| 2026-05-09 07:44 | 53.82860 | 157.83049 | 13746 ft | 294 kts | 152° |
| 2026-05-09 07:45 | 53.81090 | 157.84773 | 13425 ft | 293 kts | 152° |
| 2026-05-09 07:45 | 53.79320 | 157.86496 | 13083 ft | 292 kts | 152° |
| 2026-05-09 07:45 | 53.77557 | 157.88204 | 12762 ft | 291 kts | 152° |
| 2026-05-09 07:45 | 53.75806 | 157.89890 | 12444 ft | 289 kts | 152° |
| 2026-05-09 07:46 | 53.74062 | 157.91566 | 12144 ft | 287 kts | 152° |
| 2026-05-09 07:46 | 53.72332 | 157.93227 | 11848 ft | 285 kts | 152° |
| 2026-05-09 07:46 | 53.70612 | 157.94879 | 11577 ft | 283 kts | 152° |
| 2026-05-09 07:46 | 53.68927 | 157.96493 | 11276 ft | 281 kts | 152° |
| 2026-05-09 07:47 | 53.67233 | 157.98116 | 10992 ft | 279 kts | 152° |
| 2026-05-09 07:47 | 53.65572 | 157.99802 | 10660 ft | 280 kts | 144° |
| 2026-05-09 07:47 | 53.64076 | 158.01952 | 10294 ft | 283 kts | 138° |
| 2026-05-09 07:47 | 53.62636 | 158.04247 | 9918 ft | 285 kts | 137° |
| 2026-05-09 07:48 | 53.61210 | 158.06528 | 9759 ft | 278 kts | 137° |
| 2026-05-09 07:48 | 53.59828 | 158.08714 | 9579 ft | 270 kts | 137° |
| 2026-05-09 07:48 | 53.58410 | 158.10926 | 8855 ft | 278 kts | 138° |
| 2026-05-09 07:48 | 53.56995 | 158.13110 | 8446 ft | 272 kts | 138° |
| 2026-05-09 07:49 | 53.55639 | 158.15190 | 8127 ft | 264 kts | 138° |
| 2026-05-09 07:49 | 53.54296 | 158.17242 | 7787 ft | 257 kts | 138° |
| 2026-05-09 07:49 | 53.52963 | 158.19276 | 7435 ft | 254 kts | 137° |
| 2026-05-09 07:49 | 53.51551 | 158.21022 | 6995 ft | 260 kts | 154° |
| 2026-05-09 07:50 | 53.49858 | 158.22154 | 6562 ft | 265 kts | 157° |
| 2026-05-09 07:50 | 53.48134 | 158.23309 | 6031 ft | 267 kts | 156° |
| 2026-05-09 07:50 | 53.46419 | 158.24493 | 5520 ft | 266 kts | 156° |
| 2026-05-09 07:50 | 53.44715 | 158.25683 | 5002 ft | 264 kts | 156° |
| 2026-05-09 07:51 | 53.43026 | 158.26865 | 4500 ft | 262 kts | 156° |
| 2026-05-09 07:51 | 53.41363 | 158.28032 | 4121 ft | 255 kts | 156° |
| 2026-05-09 07:51 | 53.39763 | 158.29153 | 3773 ft | 249 kts | 156° |
| 2026-05-09 07:51 | 53.38184 | 158.30261 | 3450 ft | 242 kts | 157° |
| 2026-05-09 07:52 | 53.36646 | 158.31339 | 3236 ft | 236 kts | 157° |
| 2026-05-09 07:52 | 53.35144 | 158.32390 | 3050 ft | 229 kts | 158° |
| 2026-05-09 07:52 | 53.33742 | 158.33374 | 2894 ft | 208 kts | 157° |
| 2026-05-09 07:52 | 53.32472 | 158.34292 | 2742 ft | 190 kts | 158° |
| 2026-05-09 07:53 | 53.31276 | 158.35128 | 2583 ft | 187 kts | 158° |
| 2026-05-09 07:53 | 53.30069 | 158.35964 | 2345 ft | 187 kts | 158° |
| 2026-05-09 07:53 | 53.28876 | 158.36791 | 2125 ft | 185 kts | 159° |
| 2026-05-09 07:53 | 53.27698 | 158.37606 | 1921 ft | 181 kts | 157° |
| 2026-05-09 07:54 | 53.26566 | 158.38393 | 1699 ft | 169 kts | 158° |
| 2026-05-09 07:54 | 53.25526 | 158.39114 | 1495 ft | 155 kts | 159° |
| 2026-05-09 07:54 | 53.24571 | 158.39777 | 1355 ft | 146 kts | 160° |
| 2026-05-09 07:54 | 53.23649 | 158.40415 | 1176 ft | 142 kts | 160° |
| 2026-05-09 07:55 | 53.22739 | 158.41046 | 1010 ft | 140 kts | 159° |
| 2026-05-09 07:55 | 53.21822 | 158.41681 | 839 ft | 148 kts | 159° |
| 2026-05-09 07:55 | 53.20878 | 158.42337 | 654 ft | 147 kts | 159° |
| 2026-05-09 07:55 | 53.19957 | 158.42976 | 476 ft | 142 kts | 159° |
| 2026-05-09 07:56 | 53.19036 | 158.43608 | 295 ft | 145 kts | 158° |
| 2026-05-09 07:56 | 53.18088 | 158.44260 | 167 ft | 146 kts | 158° |
| 2026-05-09 07:56 | 53.17236 | 158.44855 | 137 ft | 113 kts | 157° |
| 2026-05-09 07:56 | 53.16706 | 158.45222 | 136 ft | 52 kts | 158° |
| 2026-05-09 07:57 | 53.16517 | 158.45352 | 133 ft | 22 kts | 158° |
| 2026-05-09 07:57 | 53.16378 | 158.45447 | 134 ft | 21 kts | 158° |
| 2026-05-09 07:57 | 53.16208 | 158.45563 | 135 ft | 9 kts | 158° |
| 2026-05-09 07:58 | 53.16154 | 158.45600 | 136 ft | 8 kts | 159° |
| 2026-05-09 07:58 | 53.16103 | 158.45582 | 136 ft | 8 kts | 234° |
| 2026-05-09 07:58 | 53.16086 | 158.45513 | 136 ft | 5 kts | 250° |
| 2026-05-09 07:58 | 53.16075 | 158.45462 | 136 ft | 5 kts | 250° |
| 2026-05-09 07:59 | 53.16067 | 158.45411 | 136 ft | 5 kts | 263° |
| 2026-05-09 07:59 | 53.16075 | 158.45362 | 136 ft | 4 kts | 303° |
| 2026-05-09 07:59 | 53.16101 | 158.45330 | 136 ft | 5 kts | 332° |
| 2026-05-09 07:59 | 53.16139 | 158.45303 | 136 ft | 7 kts | 338° |
| 2026-05-09 08:00 | 53.16189 | 158.45269 | 136 ft | 9 kts | 338° |
| 2026-05-09 08:00 | 53.16249 | 158.45228 | 136 ft | 10 kts | 337° |
| 2026-05-09 08:00 | 53.16317 | 158.45179 | 136 ft | 11 kts | 337° |
| 2026-05-09 08:00 | 53.16393 | 158.45125 | 136 ft | 13 kts | 337° |
| 2026-05-09 08:01 | 53.16477 | 158.45069 | 136 ft | 13 kts | 338° |
| 2026-05-09 08:01 | 53.16560 | 158.45013 | 136 ft | 13 kts | 337° |
| 2026-05-09 08:01 | 53.16641 | 158.44956 | 136 ft | 13 kts | 337° |
| 2026-05-09 08:01 | 53.16732 | 158.44893 | 136 ft | 16 kts | 337° |
| 2026-05-09 08:02 | 53.16842 | 158.44816 | 136 ft | 17 kts | 337° |
| 2026-05-09 08:02 | 53.16950 | 158.44741 | 136 ft | 17 kts | 337° |
| 2026-05-09 08:02 | 53.17055 | 158.44668 | 136 ft | 16 kts | 337° |
| 2026-05-09 08:02 | 53.17156 | 158.44599 | 136 ft | 15 kts | 338° |
| 2026-05-09 08:03 | 53.17253 | 158.44532 | 136 ft | 16 kts | 337° |
| 2026-05-09 08:03 | 53.17360 | 158.44458 | 136 ft | 17 kts | 338° |
| 2026-05-09 08:03 | 53.17443 | 158.44400 | 136 ft | 9 kts | 338° |
| 2026-05-09 08:03 | 53.17498 | 158.44356 | 136 ft | 9 kts | 324° |
| 2026-05-09 08:04 | 53.17513 | 158.44268 | 136 ft | 8 kts | 255° |
| 2026-05-09 08:04 | 53.17493 | 158.44180 | 136 ft | 8 kts | 248° |
| 2026-05-09 08:04 | 53.17470 | 158.44089 | 136 ft | 9 kts | 247° |
| 2026-05-09 08:04 | 53.17437 | 158.43977 | 136 ft | 12 kts | 240° |
| 2026-05-09 08:05 | 53.17387 | 158.43836 | 136 ft | 15 kts | 240° |
| 2026-05-09 08:05 | 53.17329 | 158.43668 | 181 ft | 18 kts | 239° |
| 2026-05-09 08:05 | 53.17262 | 158.43473 | 186 ft | 21 kts | 240° |
| 2026-05-09 08:05 | 53.17187 | 158.43259 | 186 ft | 21 kts | 240° |
| 2026-05-09 08:06 | 53.17116 | 158.43055 | 186 ft | 17 kts | 240° |
| 2026-05-09 08:06 | 53.17070 | 158.42924 | 186 ft | 13 kts | 239° |
| 2026-05-09 08:06 | 53.17034 | 158.42819 | 186 ft | 6 kts | 240° |
| 2026-05-09 08:06 | 53.17032 | 158.42752 | 190 ft | 6 kts | 307° |
| 2026-05-09 08:07 | 53.17063 | 158.42715 | 186 ft | 4 kts | 330° |
| 2026-05-09 08:07 | 53.17075 | 158.42683 | 186 ft | 3 kts | 276° |
| 2026-05-09 08:07 | 53.17072 | 158.42663 | 186 ft | 2 kts | 249° |
| 2026-05-09 08:07 | 53.17068 | 158.42652 | 186 ft | 0 kts | 240° |